Aviation Digital Data Service (ADDS)

Output produced by METARs form (0441 UTC 24 January 2019)
found at http://www.aviationweather.gov/metar/data/
 
Forecast for: UTNU (URGENCH , UZ)
Text: TAF UTNU 232300Z 2400/2424 12010G20KT 5000 BR BKN030 OVC100
Forecast period: 0000 UTC 24 January 2019 to 0000 UTC 25 January 2019
Forecast type: FROM: standard forecast or significant change
Winds: from the ESE (120 degrees) at 12 MPH (10 knots; 5.1 m/s)
gusting to 23 MPH (20 knots; 10.3 m/s)
Visibility: 3 miles (5 km)
Ceiling: 3000 feet AGL
Clouds: broken clouds at 3000 feet AGL
overcast cloud deck at 10000 feet AGL
Weather: BR  (mist)
Text: TEMPO 2400/2406 VRB04KT 0600 FZFG VV002
Forecast period: 0000 to 0600 UTC 24 January 2019
Forecast type: TEMPORARY: The following changes expected for less than half the time period
Winds: variable direction winds at 5 MPH (4 knots; 2.1 m/s)
Visibility: 0.37 miles (0.60 km)
Ceiling: indefinite ceiling with vertical visibility of 200 feet AGL
Clouds: obscured sky
Weather: FZFG  (freezing fog)